createdAt,value
2022-12-05T00:01:16.471Z,2.86
2022-12-05T00:04:18.424Z,2.87
2022-12-05T00:07:20.153Z,2.85
2022-12-05T00:10:21.867Z,2.86
2022-12-05T00:13:23.594Z,2.83
2022-12-05T00:16:28.176Z,2.64
2022-12-05T00:19:29.847Z,2.71
2022-12-05T00:22:31.611Z,2.72
2022-12-05T00:25:35.814Z,2.83
2022-12-05T00:28:37.953Z,2.86
2022-12-05T00:31:42.149Z,2.86
2022-12-05T00:34:43.879Z,2.93
2022-12-05T00:37:45.615Z,2.98
2022-12-05T00:40:47.311Z,2.90
2022-12-05T00:43:49.270Z,2.83
2022-12-05T00:46:52.370Z,2.92
2022-12-05T00:49:54.066Z,2.87
2022-12-05T00:52:55.762Z,2.86
2022-12-05T00:55:57.566Z,2.76
2022-12-05T00:59:00.348Z,2.73
2022-12-05T01:02:03.462Z,2.58
2022-12-05T01:05:05.658Z,2.61
2022-12-05T01:08:07.523Z,2.53
2022-12-05T01:11:10.344Z,2.54
2022-12-05T01:14:12.507Z,2.54
2022-12-05T01:17:15.616Z,2.31
2022-12-05T01:20:17.531Z,2.26
2022-12-05T01:23:19.672Z,2.05
2022-12-05T01:26:22.149Z,2.12
2022-12-05T01:29:24.364Z,2.24
2022-12-05T01:32:27.512Z,2.15
2022-12-05T01:35:31.145Z,2.24
2022-12-05T01:38:32.822Z,2.27
2022-12-05T01:41:35.408Z,2.36
2022-12-05T01:44:55.523Z,2.26
2022-12-05T01:47:59.059Z,2.27
2022-12-05T01:51:01.046Z,2.18
2022-12-05T01:54:04.786Z,2.08
2022-12-05T01:57:08.207Z,2.25
2022-12-05T02:00:11.957Z,2.16
2022-12-05T02:03:18.482Z,2.14
2022-12-05T02:06:20.744Z,2.26
2022-12-05T02:09:23.321Z,2.30
2022-12-05T02:12:25.910Z,2.27
2022-12-05T02:15:32.166Z,2.27
2022-12-05T02:18:42.308Z,2.34
2022-12-05T02:21:55.375Z,2.37
2022-12-05T02:25:13.630Z,2.41
2022-12-05T02:28:27.731Z,2.46
2022-12-05T02:31:33.320Z,2.45
2022-12-05T02:34:37.909Z,2.46
2022-12-05T02:37:42.477Z,2.51
2022-12-05T02:40:47.900Z,2.52
2022-12-05T02:43:53.678Z,2.51
2022-12-05T02:46:57.365Z,2.52
2022-12-05T02:49:59.416Z,2.55
2022-12-05T02:53:03.818Z,2.52
2022-12-05T02:56:06.491Z,2.54
2022-12-05T02:59:08.185Z,2.55
2022-12-05T03:02:22.052Z,2.46
2022-12-05T03:05:38.091Z,2.34
2022-12-05T03:08:40.990Z,2.28
2022-12-05T03:11:45.558Z,2.24
2022-12-05T03:14:49.848Z,2.33
2022-12-05T03:17:54.096Z,2.23
2022-12-05T03:20:58.812Z,2.16
2022-12-05T03:24:02.840Z,2.10
2022-12-05T03:27:08.002Z,2.15
2022-12-05T03:30:11.475Z,2.25
2022-12-05T03:33:17.516Z,2.30
2022-12-05T03:36:22.195Z,2.38
2022-12-05T03:39:25.823Z,2.42
2022-12-05T03:42:31.261Z,2.47
2022-12-05T03:45:35.614Z,2.52
2022-12-05T03:48:42.388Z,2.54
2022-12-05T03:51:47.304Z,2.47
2022-12-05T03:54:51.491Z,2.43
2022-12-05T03:57:55.889Z,2.38
2022-12-05T04:00:59.416Z,2.38
2022-12-05T04:04:06.001Z,2.37
2022-12-05T04:07:09.586Z,2.37
2022-12-05T04:10:13.157Z,2.44
2022-12-05T04:13:16.580Z,2.40
2022-12-05T04:16:20.573Z,2.42
2022-12-05T04:19:25.854Z,2.32
2022-12-05T04:22:27.826Z,2.39
2022-12-05T04:25:36.412Z,2.43
2022-12-05T04:28:39.465Z,2.48
2022-12-05T04:31:42.441Z,2.48
2022-12-05T04:34:49.310Z,2.50
2022-12-05T04:37:52.614Z,2.47
2022-12-05T04:40:57.264Z,2.37
2022-12-05T04:44:01.483Z,2.37
2022-12-05T04:47:05.323Z,2.33
2022-12-05T04:50:11.055Z,2.43
2022-12-05T04:53:13.480Z,2.39
2022-12-05T04:56:16.914Z,2.10
2022-12-05T04:59:19.052Z,2.05
2022-12-05T05:02:24.900Z,2.13
2022-12-05T05:05:28.542Z,2.08
2022-12-05T05:08:30.679Z,2.07
2022-12-05T05:11:33.365Z,1.92
2022-12-05T05:14:35.271Z,1.86
2022-12-05T05:17:37.004Z,1.79
2022-12-05T05:20:40.094Z,1.86
2022-12-05T05:23:43.080Z,1.86
2022-12-05T05:26:45.714Z,1.66
2022-12-05T05:29:47.450Z,1.54
2022-12-05T05:32:49.346Z,1.36
2022-12-05T05:35:52.461Z,1.43
2022-12-05T05:38:55.347Z,1.35
2022-12-05T05:41:57.069Z,1.46
2022-12-05T05:44:58.801Z,1.36
2022-12-05T05:48:00.480Z,1.30
2022-12-05T05:51:04.315Z,1.36
2022-12-05T05:54:05.990Z,1.29
2022-12-05T05:57:07.694Z,1.31
2022-12-05T06:00:10.242Z,1.35
2022-12-05T06:03:12.050Z,1.45
2022-12-05T06:06:15.218Z,1.51
2022-12-05T06:09:16.855Z,1.50
2022-12-05T06:12:18.548Z,1.48
2022-12-05T06:15:20.212Z,1.51
2022-12-05T06:18:21.988Z,1.43
2022-12-05T06:21:25.343Z,1.30
2022-12-05T06:24:27.060Z,1.32
2022-12-05T06:27:29.814Z,1.07
2022-12-05T06:30:31.481Z,1.13
2022-12-05T06:33:33.095Z,1.04
2022-12-05T06:36:36.207Z,0.99
2022-12-05T06:39:37.917Z,1.02
2022-12-05T06:42:39.577Z,1.04
2022-12-05T06:45:41.318Z,1.06
2022-12-05T06:48:43.019Z,0.95
2022-12-05T06:51:46.136Z,1.03
2022-12-05T06:54:47.855Z,0.83
2022-12-05T06:57:49.599Z,0.73
2022-12-05T07:00:51.326Z,0.80
2022-12-05T07:03:53.058Z,0.74
2022-12-05T07:06:56.111Z,0.79
2022-12-05T07:09:58.071Z,0.85
2022-12-05T07:12:59.839Z,0.82
2022-12-05T07:16:01.706Z,0.85
2022-12-05T07:19:03.498Z,0.95
2022-12-05T07:22:09.474Z,0.80
2022-12-05T07:25:15.473Z,0.84
2022-12-05T07:28:17.166Z,0.87
2022-12-05T07:31:19.775Z,0.91
2022-12-05T07:34:21.538Z,1.01
2022-12-05T07:37:24.617Z,0.96
2022-12-05T07:40:26.262Z,1.08
2022-12-05T07:43:27.961Z,1.17
2022-12-05T07:46:29.782Z,1.31
2022-12-05T07:49:31.481Z,1.39
2022-12-05T07:52:34.499Z,1.40
2022-12-05T07:55:37.574Z,1.39
2022-12-05T07:58:39.228Z,1.26
2022-12-05T08:01:40.947Z,1.27
2022-12-05T08:04:42.658Z,1.09
2022-12-05T08:07:45.786Z,1.06
2022-12-05T08:10:47.585Z,1.21
2022-12-05T08:13:49.524Z,1.32
2022-12-05T08:16:51.431Z,1.37
2022-12-05T08:19:53.181Z,1.36
2022-12-05T08:22:56.281Z,1.35
2022-12-05T08:26:00.959Z,1.37
2022-12-05T08:29:03.811Z,1.46
2022-12-05T08:32:05.653Z,1.49
2022-12-05T08:35:07.704Z,1.55
2022-12-05T08:38:10.762Z,1.57
2022-12-05T08:41:13.841Z,1.43
2022-12-05T08:44:15.699Z,1.48
2022-12-05T08:47:17.520Z,1.54
2022-12-05T08:50:19.252Z,1.59
2022-12-05T08:53:22.411Z,1.68
2022-12-05T08:56:27.394Z,1.70
2022-12-05T08:59:29.359Z,1.70
2022-12-05T09:02:31.012Z,1.72
2022-12-05T09:05:33.067Z,1.55
2022-12-05T09:08:36.542Z,1.56
2022-12-05T09:11:39.578Z,1.54
2022-12-05T09:14:41.304Z,1.54
2022-12-05T09:17:43.015Z,1.54
2022-12-05T09:20:44.718Z,1.59
2022-12-05T09:23:47.992Z,1.48
2022-12-05T09:26:50.020Z,1.48
2022-12-05T09:29:51.674Z,1.30
2022-12-05T09:32:53.345Z,1.33
2022-12-05T09:35:55.077Z,1.35
2022-12-05T09:38:59.583Z,1.36
2022-12-05T09:42:25.328Z,1.55
2022-12-05T09:45:30.293Z,1.34
2022-12-05T09:48:32.617Z,1.27
2022-12-05T09:51:36.822Z,1.32
2022-12-05T09:54:39.889Z,1.36
2022-12-05T09:57:44.482Z,1.34
2022-12-05T10:00:46.463Z,1.38
2022-12-05T10:03:58.062Z,1.36
2022-12-05T10:07:06.471Z,1.40
2022-12-05T10:10:21.280Z,1.28
2022-12-05T10:13:29.710Z,1.32
2022-12-05T10:16:33.045Z,1.39
2022-12-05T10:19:39.171Z,1.34
2022-12-05T10:22:45.129Z,1.29
2022-12-05T10:25:57.664Z,1.29
2022-12-05T10:29:02.601Z,1.30
2022-12-05T10:32:06.666Z,1.30
2022-12-05T10:35:15.062Z,1.39
2022-12-05T10:38:19.737Z,1.47
2022-12-05T10:41:23.017Z,1.55
2022-12-05T10:44:24.774Z,1.52
2022-12-05T10:47:26.639Z,1.60
2022-12-05T10:50:29.774Z,1.58
2022-12-05T10:53:36.874Z,1.58
2022-12-05T10:56:40.746Z,1.60
2022-12-05T10:59:44.968Z,1.59
2022-12-05T11:02:50.919Z,1.67
2022-12-05T11:05:53.014Z,1.64
2022-12-05T11:09:04.701Z,1.73
2022-12-05T11:12:15.742Z,1.69
2022-12-05T11:15:21.573Z,1.59
2022-12-05T11:18:27.891Z,1.68
2022-12-05T11:21:41.623Z,1.69
2022-12-05T11:24:43.396Z,1.70
2022-12-05T11:27:46.442Z,1.79
2022-12-05T11:30:56.045Z,1.73
2022-12-05T11:34:02.252Z,1.67
2022-12-05T11:37:06.605Z,1.70
2022-12-05T11:40:15.178Z,1.61
2022-12-05T11:43:29.123Z,1.53
2022-12-05T11:46:36.697Z,1.55
2022-12-05T11:49:44.869Z,1.58
2022-12-05T11:52:53.814Z,1.75
2022-12-05T11:56:00.430Z,1.82
2022-12-05T11:59:17.228Z,1.90
2022-12-05T12:02:26.025Z,1.93
2022-12-05T12:05:35.664Z,1.88
2022-12-05T12:08:44.812Z,1.84
2022-12-05T12:11:51.772Z,1.82
2022-12-05T12:15:00.820Z,1.84
2022-12-05T12:18:10.151Z,1.85
2022-12-05T12:21:16.190Z,1.89
2022-12-05T12:24:22.487Z,1.99
2022-12-05T12:27:32.478Z,1.75
2022-12-05T12:30:46.065Z,1.67
2022-12-05T12:33:52.825Z,1.81
2022-12-05T12:36:58.698Z,1.78
2022-12-05T12:40:05.488Z,1.85
2022-12-05T12:43:30.879Z,1.88
2022-12-05T12:46:43.537Z,1.92
2022-12-05T12:49:50.719Z,1.91
2022-12-05T12:53:03.807Z,1.93
2022-12-05T12:56:12.004Z,2.06
2022-12-05T12:59:23.162Z,2.05
2022-12-05T13:02:31.350Z,2.01
2022-12-05T13:05:34.441Z,2.01
2022-12-05T13:08:38.723Z,1.99
2022-12-05T13:11:42.122Z,1.94
2022-12-05T13:14:48.867Z,1.91
2022-12-05T13:17:54.225Z,1.96
2022-12-05T13:20:56.979Z,2.01
2022-12-05T13:23:59.653Z,2.07
2022-12-05T13:27:02.747Z,2.11
2022-12-05T13:30:09.363Z,2.07
2022-12-05T13:33:17.632Z,2.01
2022-12-05T13:36:20.958Z,2.08
2022-12-05T13:39:22.921Z,2.15
2022-12-05T13:42:26.368Z,2.13
2022-12-05T13:45:28.507Z,2.20
2022-12-05T13:48:33.396Z,2.27
2022-12-05T13:51:36.163Z,2.25
2022-12-05T13:54:42.700Z,2.27
2022-12-05T13:57:54.423Z,2.24
2022-12-05T14:01:11.186Z,2.24
2022-12-05T14:04:30.543Z,2.17
2022-12-05T14:07:38.558Z,2.15
2022-12-05T14:10:55.174Z,2.19
2022-12-05T14:14:02.415Z,2.23
2022-12-05T14:17:08.063Z,2.17
2022-12-05T14:20:19.501Z,2.13
2022-12-05T14:23:45.202Z,2.19
2022-12-05T14:26:57.158Z,2.14
2022-12-05T14:30:02.858Z,2.22
2022-12-05T14:33:13.060Z,2.22
2022-12-05T14:36:16.945Z,2.06
2022-12-05T14:39:22.650Z,2.10
2022-12-05T14:42:29.609Z,2.05
2022-12-05T14:45:33.535Z,2.18
2022-12-05T14:48:40.110Z,2.18
2022-12-05T14:51:44.940Z,2.30
2022-12-05T14:54:46.732Z,2.34
2022-12-05T14:57:50.300Z,2.34
2022-12-05T15:00:55.225Z,2.40
2022-12-05T15:04:09.528Z,2.42
2022-12-05T15:07:13.092Z,2.55
2022-12-05T15:10:16.741Z,2.34
2022-12-05T15:13:22.356Z,2.33
2022-12-05T15:16:24.787Z,2.37
2022-12-05T15:19:27.993Z,2.36
2022-12-05T15:22:32.469Z,2.41
2022-12-05T15:25:35.323Z,2.39
2022-12-05T15:28:38.464Z,2.42
2022-12-05T15:31:44.768Z,2.40
2022-12-05T15:34:48.158Z,2.47
2022-12-05T15:37:52.200Z,2.47
2022-12-05T15:40:53.894Z,2.50
2022-12-05T15:43:57.636Z,2.49
2022-12-05T15:46:59.311Z,2.52
2022-12-05T15:50:01.127Z,2.54
2022-12-05T15:53:05.448Z,2.56
2022-12-05T15:56:08.853Z,2.57
2022-12-05T15:59:14.790Z,2.54
2022-12-05T16:02:20.122Z,2.50
2022-12-05T16:05:22.841Z,2.58
2022-12-05T16:08:25.059Z,2.54
2022-12-05T16:11:26.893Z,2.54
2022-12-05T16:17:55.860Z,2.42
2022-12-05T16:20:57.693Z,2.36
2022-12-05T16:24:05.662Z,2.40
2022-12-05T16:27:14.117Z,2.39
2022-12-05T16:30:21.339Z,2.42
2022-12-05T16:33:23.484Z,2.43
2022-12-05T16:36:25.221Z,2.37
2022-12-05T16:39:28.101Z,2.46
2022-12-05T16:42:30.332Z,2.40
2022-12-05T16:45:40.824Z,2.43
2022-12-05T16:48:43.068Z,2.29
2022-12-05T16:51:45.943Z,2.21
2022-12-05T16:54:48.016Z,2.09
2022-12-05T16:57:50.042Z,2.03
2022-12-05T17:00:58.694Z,2.12
2022-12-05T17:04:00.927Z,2.13
2022-12-05T17:07:02.850Z,2.30
2022-12-05T17:10:05.115Z,2.31
2022-12-05T17:13:08.144Z,2.36
2022-12-05T17:16:11.813Z,2.41
2022-12-05T17:19:14.353Z,2.43
2022-12-05T17:22:17.232Z,2.44
2022-12-05T17:25:23.401Z,2.44
2022-12-05T17:28:25.729Z,2.52
2022-12-05T17:31:29.513Z,2.50
2022-12-05T17:34:31.560Z,2.45
2022-12-05T17:37:33.623Z,2.51
2022-12-05T17:40:35.749Z,2.45
2022-12-05T17:43:37.455Z,2.43
2022-12-05T17:46:41.116Z,2.47
2022-12-05T17:49:42.885Z,2.44
2022-12-05T17:52:44.650Z,2.47
2022-12-05T17:55:46.835Z,2.46
2022-12-05T17:58:49.121Z,2.41
2022-12-05T18:01:53.636Z,2.42
2022-12-05T18:04:56.074Z,2.44
2022-12-05T18:07:58.668Z,2.36
2022-12-05T18:11:01.095Z,2.30
2022-12-05T18:14:03.231Z,2.39
2022-12-05T18:17:07.268Z,2.19
2022-12-05T18:20:11.751Z,2.22
2022-12-05T18:23:15.070Z,2.16
2022-12-05T18:26:17.380Z,2.24
2022-12-05T18:29:19.625Z,2.30
2022-12-05T18:32:23.563Z,2.30
2022-12-05T18:35:26.082Z,2.24
2022-12-05T18:38:28.192Z,2.23
2022-12-05T18:41:30.478Z,2.25
2022-12-05T18:44:32.793Z,2.29
2022-12-05T18:47:37.035Z,2.36
2022-12-05T18:50:39.277Z,2.36
2022-12-05T18:53:42.214Z,2.35
2022-12-05T18:56:44.602Z,2.39
2022-12-05T18:59:47.034Z,2.34
2022-12-05T19:02:50.412Z,2.34
2022-12-05T19:05:54.536Z,2.30
2022-12-05T19:08:57.789Z,2.27
2022-12-05T19:12:00.111Z,2.20
2022-12-05T19:15:02.786Z,2.27
2022-12-05T19:18:06.918Z,2.24
2022-12-05T19:21:09.366Z,2.25
2022-12-05T19:24:12.914Z,2.23
2022-12-05T19:27:15.562Z,2.28
2022-12-05T19:30:17.690Z,2.25
2022-12-05T19:33:21.721Z,2.29
2022-12-05T19:36:25.956Z,2.24
2022-12-05T19:39:28.238Z,2.31
2022-12-05T19:42:30.575Z,2.26
2022-12-05T19:45:42.213Z,2.07
2022-12-05T19:48:45.955Z,2.11
2022-12-05T19:51:48.359Z,2.08
2022-12-05T19:54:50.526Z,2.09
2022-12-05T19:57:55.944Z,2.08
2022-12-05T20:01:06.771Z,2.08
2022-12-05T20:04:11.903Z,2.05
2022-12-05T20:07:14.578Z,2.03
2022-12-05T20:10:17.198Z,1.99
2022-12-05T20:13:45.272Z,2.03
2022-12-05T20:16:43.425Z,2.08
2022-12-05T20:19:48.761Z,2.11
2022-12-05T20:22:53.536Z,2.07
2022-12-05T20:25:56.961Z,2.09
2022-12-05T20:29:00.586Z,2.04
2022-12-05T20:32:03.274Z,1.98
2022-12-05T20:35:07.856Z,2.02
2022-12-05T20:38:10.221Z,1.90
2022-12-05T20:41:13.658Z,1.83
2022-12-05T20:44:16.774Z,1.79
2022-12-05T20:47:18.595Z,1.78
2022-12-05T20:50:27.049Z,1.72
2022-12-05T20:53:29.625Z,1.70
2022-12-05T20:56:32.587Z,1.73
2022-12-05T20:59:34.677Z,1.75
2022-12-05T21:02:36.912Z,1.68
2022-12-05T21:05:43.298Z,1.68
2022-12-05T21:08:45.568Z,1.74
2022-12-05T21:11:47.300Z,1.70
2022-12-05T21:14:49.017Z,1.76
2022-12-05T21:17:50.733Z,1.81
2022-12-05T21:20:57.626Z,1.77
2022-12-05T21:24:00.339Z,1.71
2022-12-05T21:27:02.081Z,1.69
2022-12-05T21:30:04.232Z,1.70
2022-12-05T21:33:06.084Z,1.73
2022-12-05T21:36:09.811Z,1.49
2022-12-05T21:39:11.793Z,1.46
2022-12-05T21:42:13.797Z,1.38
2022-12-05T21:45:15.504Z,1.15
2022-12-05T21:48:17.280Z,1.21
2022-12-05T21:51:20.833Z,1.11
2022-12-05T21:54:22.502Z,1.06
2022-12-05T21:57:24.244Z,0.97
2022-12-05T22:00:26.052Z,0.80
2022-12-05T22:03:27.812Z,0.76
2022-12-05T22:06:31.019Z,0.71
2022-12-05T22:09:32.768Z,0.76
2022-12-05T22:12:34.683Z,0.89
2022-12-05T22:15:36.433Z,0.81
2022-12-05T22:18:38.481Z,0.78
2022-12-05T22:21:43.258Z,0.71
2022-12-05T22:24:44.954Z,0.86
2022-12-05T22:27:46.626Z,0.80
2022-12-05T22:30:48.447Z,0.88
2022-12-05T22:33:50.255Z,0.89
2022-12-05T22:36:53.377Z,0.75
2022-12-05T22:39:55.063Z,0.84
2022-12-05T22:42:56.748Z,0.91
2022-12-05T22:46:02.528Z,0.81
2022-12-05T22:49:04.566Z,0.90
2022-12-05T22:52:07.678Z,0.88
2022-12-05T22:55:09.415Z,0.88
2022-12-05T22:58:11.257Z,0.87
2022-12-05T23:01:14.007Z,0.98
2022-12-05T23:04:15.862Z,0.98
2022-12-05T23:07:19.076Z,0.85
2022-12-05T23:10:20.809Z,0.83
2022-12-05T23:13:22.631Z,0.88
2022-12-05T23:16:25.388Z,0.87
2022-12-05T23:19:27.198Z,0.86
2022-12-05T23:22:30.310Z,0.87
2022-12-05T23:25:32.108Z,0.88
2022-12-05T23:28:33.838Z,0.93
2022-12-05T23:31:35.616Z,1.05
2022-12-05T23:34:37.376Z,0.95
2022-12-05T23:37:40.448Z,0.94
2022-12-05T23:40:42.198Z,1.02
2022-12-05T23:43:43.880Z,0.98
2022-12-05T23:46:45.671Z,0.97
2022-12-05T23:49:47.399Z,0.94
2022-12-05T23:52:50.444Z,0.86
2022-12-05T23:55:52.104Z,1.04
2022-12-05T23:58:54.052Z,1.03
